Ouray, CO

12:18 AM MDT on September 05, 2015 (GMT -0600)
Ouray | | Change Station
CLOSE
Current Station
Personal Weather Station
Location: Ouray, CO
Elevation: 7736 ft
Nearby Weather Stations

Elev 7736 ft 38.03 °N, 107.67 °W | Updated 9 seconds ago

Overcast
Overcast
53.8 °F
Feels Like 53.8 °F
N
4.0
Wind Variable Wind from SSW
Gusts 16.0 mph

Today
High -- | Low -- °F
--% Chance of Precip.
Yesterday
High -- | Low -- °F
Precip. -- in
6:43 AM 7:34 PM
Waning Gibbous, 52% visible
Pressure 30.31 in
Visibility 10.0 miles
Clouds Scattered Clouds 6000 ft
Overcast 7000 ft
Dew Point 48 °F
Humidity 81%
Rainfall 0.00 in
Snow Depth Not available.
UV 0 out of 12
Pollen 9.00 out of 12
Air Quality Not available.
Flu Activity Not available.
METAR KTEX 050615Z AUTO 08004KT 10SM SCT060 OVC070 12/08 A3031 RMK AO2 LTG DSNT NW T01170080
Pressure 30.31 in
Visibility 10.0 miles
Clouds Scattered Clouds 6000 ft
Overcast 7000 ft
Dew Point 48 °F
Humidity 81%
Rainfall 0.00 in
Snow Depth Not available.
UV 0 out of 12
Pollen 9.00 out of 12
Air Quality Not available.
Flu Activity Not available.
METAR KTEX 050615Z AUTO 08004KT 10SM SCT060 OVC070 12/08 A3031 RMK AO2 LTG DSNT NW T01170080

10-Day Weather Forecast

×

Almanac

Astronomy

Sep. 05, 2015 Rise Set
Actual Time
Civil Twilight
Nautical Twilight
Astronomical Twilight
Moon
Length of Visible Light
Length of Day
Tomorrow will be .
, % of the Moon is Illuminated

Today's Extremes

State Highs State Lows

Community

WunderPhotos

Upload Photos

1,852,431 photos uploaded!

WunderBlogs® & News

Nearby

Air Quality

  Air Quality AQ Index Pollutant
Not available.

Snow Depth

Station Depth Elevation

Earthquake Activity

City Distance Mag. Time & Date
Minimum magnitude displayed is 2.5.

Coastal Water Temperatures

Place Temperature

Stations

Nearby Weather Stations

Station Location Temp. Windchill Dew Point Humidity Wind Precip. Elev Updated Type